sensor_id;sensor_type;location;lat;lon;timestamp;temperature;humidity
68804;SHT31;55787;52.678;13.314;2022-10-26T00:01:05;6.81;99.99
68804;SHT31;55787;52.678;13.314;2022-10-26T00:03:33;6.81;99.99
68804;SHT31;55787;52.678;13.314;2022-10-26T00:06:10;6.75;99.99
68804;SHT31;55787;52.678;13.314;2022-10-26T00:08:37;6.71;99.99
68804;SHT31;55787;52.678;13.314;2022-10-26T00:11:05;6.67;99.99
68804;SHT31;55787;52.678;13.314;2022-10-26T00:13:33;6.67;99.99
68804;SHT31;55787;52.678;13.314;2022-10-26T00:15:59;6.62;99.99
68804;SHT31;55787;52.678;13.314;2022-10-26T00:18:31;6.59;99.99
68804;SHT31;55787;52.678;13.314;2022-10-26T00:21:02;6.56;99.99
68804;SHT31;55787;52.678;13.314;2022-10-26T00:23:30;6.51;99.99
68804;SHT31;55787;52.678;13.314;2022-10-26T00:25:57;6.49;99.99
68804;SHT31;55787;52.678;13.314;2022-10-26T00:28:24;6.44;99.99
68804;SHT31;55787;52.678;13.314;2022-10-26T00:30:50;6.42;99.99
68804;SHT31;55787;52.678;13.314;2022-10-26T00:33:18;6.44;99.99
68804;SHT31;55787;52.678;13.314;2022-10-26T00:35:52;6.38;99.99
68804;SHT31;55787;52.678;13.314;2022-10-26T00:38:19;6.35;99.99
68804;SHT31;55787;52.678;13.314;2022-10-26T00:40:46;6.32;99.99
68804;SHT31;55787;52.678;13.314;2022-10-26T00:45:46;6.23;99.99
68804;SHT31;55787;52.678;13.314;2022-10-26T00:48:30;6.17;99.99
68804;SHT31;55787;52.678;13.314;2022-10-26T00:51:02;6.20;99.99
68804;SHT31;55787;52.678;13.314;2022-10-26T00:53:31;6.14;99.99
68804;SHT31;55787;52.678;13.314;2022-10-26T00:55:58;6.14;99.99
68804;SHT31;55787;52.678;13.314;2022-10-26T00:58:25;6.13;99.99
68804;SHT31;55787;52.678;13.314;2022-10-26T01:00:52;6.07;99.99
68804;SHT31;55787;52.678;13.314;2022-10-26T01:03:21;6.10;99.99
68804;SHT31;55787;52.678;13.314;2022-10-26T01:05:51;6.07;99.99
68804;SHT31;55787;52.678;13.314;2022-10-26T01:08:19;6.04;99.99
68804;SHT31;55787;52.678;13.314;2022-10-26T01:10:46;6.03;99.99
68804;SHT31;55787;52.678;13.314;2022-10-26T01:13:14;5.97;99.99
68804;SHT31;55787;52.678;13.314;2022-10-26T01:15:54;6.00;99.99
68804;SHT31;55787;52.678;13.314;2022-10-26T01:18:44;6.00;99.99
68804;SHT31;55787;52.678;13.314;2022-10-26T01:26:52;5.92;99.99
68804;SHT31;55787;52.678;13.314;2022-10-26T01:32:15;5.85;99.99
68804;SHT31;55787;52.678;13.314;2022-10-26T01:34:56;5.79;99.99
68804;SHT31;55787;52.678;13.314;2022-10-26T01:37:29;5.79;99.99
68804;SHT31;55787;52.678;13.314;2022-10-26T01:40:06;5.76;99.99
68804;SHT31;55787;52.678;13.314;2022-10-26T01:42:37;5.76;99.99
68804;SHT31;55787;52.678;13.314;2022-10-26T01:45:08;5.73;99.99
68804;SHT31;55787;52.678;13.314;2022-10-26T01:47:36;5.73;99.99
68804;SHT31;55787;52.678;13.314;2022-10-26T01:50:05;5.70;99.99
68804;SHT31;55787;52.678;13.314;2022-10-26T01:52:32;5.72;99.99
68804;SHT31;55787;52.678;13.314;2022-10-26T01:58:03;5.65;99.99
68804;SHT31;55787;52.678;13.314;2022-10-26T02:00:36;5.65;99.99
68804;SHT31;55787;52.678;13.314;2022-10-26T02:08:26;5.60;99.99
68804;SHT31;55787;52.678;13.314;2022-10-26T02:13:36;5.56;99.99
68804;SHT31;55787;52.678;13.314;2022-10-26T02:18:46;5.51;99.99
68804;SHT31;55787;52.678;13.314;2022-10-26T02:21:19;5.49;99.99
68804;SHT31;55787;52.678;13.314;2022-10-26T02:23:48;5.45;99.99
68804;SHT31;55787;52.678;13.314;2022-10-26T02:26:21;5.48;99.99
68804;SHT31;55787;52.678;13.314;2022-10-26T02:28:50;5.49;99.99
68804;SHT31;55787;52.678;13.314;2022-10-26T02:31:19;5.49;99.99
68804;SHT31;55787;52.678;13.314;2022-10-26T02:33:48;5.52;99.99
68804;SHT31;55787;52.678;13.314;2022-10-26T02:36:18;5.48;99.99
68804;SHT31;55787;52.678;13.314;2022-10-26T02:38:48;5.48;99.99
68804;SHT31;55787;52.678;13.314;2022-10-26T02:41:16;5.49;99.99
68804;SHT31;55787;52.678;13.314;2022-10-26T02:43:52;5.48;99.99
68804;SHT31;55787;52.678;13.314;2022-10-26T02:46:21;5.52;99.99
68804;SHT31;55787;52.678;13.314;2022-10-26T02:48:48;5.55;99.99
68804;SHT31;55787;52.678;13.314;2022-10-26T02:52:07;5.53;99.99
68804;SHT31;55787;52.678;13.314;2022-10-26T02:56:53;5.49;99.99
68804;SHT31;55787;52.678;13.314;2022-10-26T02:59:25;5.51;99.99
68804;SHT31;55787;52.678;13.314;2022-10-26T03:01:53;5.49;99.99
68804;SHT31;55787;52.678;13.314;2022-10-26T03:04:30;5.48;99.99
68804;SHT31;55787;52.678;13.314;2022-10-26T03:06:57;5.45;99.99
68804;SHT31;55787;52.678;13.314;2022-10-26T03:09:24;5.42;99.99
68804;SHT31;55787;52.678;13.314;2022-10-26T03:11:51;5.42;99.99
68804;SHT31;55787;52.678;13.314;2022-10-26T03:14:18;5.39;99.99
68804;SHT31;55787;52.678;13.314;2022-10-26T03:16:44;5.42;99.99
68804;SHT31;55787;52.678;13.314;2022-10-26T03:19:11;5.39;99.99
68804;SHT31;55787;52.678;13.314;2022-10-26T03:21:38;5.41;99.99
68804;SHT31;55787;52.678;13.314;2022-10-26T03:24:04;5.35;99.99
68804;SHT31;55787;52.678;13.314;2022-10-26T03:26:31;5.36;99.99
68804;SHT31;55787;52.678;13.314;2022-10-26T03:28:58;5.31;99.99
68804;SHT31;55787;52.678;13.314;2022-10-26T03:31:24;5.30;99.99
68804;SHT31;55787;52.678;13.314;2022-10-26T03:33:51;5.30;99.99
68804;SHT31;55787;52.678;13.314;2022-10-26T03:36:17;5.31;99.99
68804;SHT31;55787;52.678;13.314;2022-10-26T03:38:44;5.28;99.99
68804;SHT31;55787;52.678;13.314;2022-10-26T03:41:10;5.28;99.99
68804;SHT31;55787;52.678;13.314;2022-10-26T03:43:37;5.25;99.99
68804;SHT31;55787;52.678;13.314;2022-10-26T03:46:04;5.25;99.99
68804;SHT31;55787;52.678;13.314;2022-10-26T03:48:31;5.27;99.99
68804;SHT31;55787;52.678;13.314;2022-10-26T03:50:57;5.21;99.99
68804;SHT31;55787;52.678;13.314;2022-10-26T03:53:25;5.22;99.99
68804;SHT31;55787;52.678;13.314;2022-10-26T03:55:52;5.20;99.99
68804;SHT31;55787;52.678;13.314;2022-10-26T03:58:18;5.18;99.99
68804;SHT31;55787;52.678;13.314;2022-10-26T04:00:46;5.17;99.99
68804;SHT31;55787;52.678;13.314;2022-10-26T04:03:13;5.15;99.99
68804;SHT31;55787;52.678;13.314;2022-10-26T04:05:39;5.12;99.99
68804;SHT31;55787;52.678;13.314;2022-10-26T04:08:07;5.10;99.99
68804;SHT31;55787;52.678;13.314;2022-10-26T04:10:33;5.07;99.99
68804;SHT31;55787;52.678;13.314;2022-10-26T04:13:00;5.07;99.99
68804;SHT31;55787;52.678;13.314;2022-10-26T04:15:27;5.07;99.99
68804;SHT31;55787;52.678;13.314;2022-10-26T04:17:58;5.05;99.99
68804;SHT31;55787;52.678;13.314;2022-10-26T04:20:27;5.04;99.99
68804;SHT31;55787;52.678;13.314;2022-10-26T04:25:24;5.02;99.99
68804;SHT31;55787;52.678;13.314;2022-10-26T04:27:55;5.00;99.99
68804;SHT31;55787;52.678;13.314;2022-10-26T04:30:22;5.01;99.99
68804;SHT31;55787;52.678;13.314;2022-10-26T04:32:49;4.98;99.99
68804;SHT31;55787;52.678;13.314;2022-10-26T04:35:16;5.01;99.99
68804;SHT31;55787;52.678;13.314;2022-10-26T04:37:43;4.97;99.99
68804;SHT31;55787;52.678;13.314;2022-10-26T04:40:10;5.00;99.99
68804;SHT31;55787;52.678;13.314;2022-10-26T04:42:43;4.95;99.99
68804;SHT31;55787;52.678;13.314;2022-10-26T04:45:10;4.97;99.99
68804;SHT31;55787;52.678;13.314;2022-10-26T04:47:38;4.98;99.99
68804;SHT31;55787;52.678;13.314;2022-10-26T04:50:05;4.94;99.99
68804;SHT31;55787;52.678;13.314;2022-10-26T04:52:33;4.95;99.99
68804;SHT31;55787;52.678;13.314;2022-10-26T04:55:00;4.95;99.99
68804;SHT31;55787;52.678;13.314;2022-10-26T04:57:26;4.95;99.99
68804;SHT31;55787;52.678;13.314;2022-10-26T04:59:53;4.94;99.99
68804;SHT31;55787;52.678;13.314;2022-10-26T05:02:20;4.91;99.99
68804;SHT31;55787;52.678;13.314;2022-10-26T05:04:47;4.91;99.99
68804;SHT31;55787;52.678;13.314;2022-10-26T05:07:13;4.93;99.99
68804;SHT31;55787;52.678;13.314;2022-10-26T05:09:40;4.93;99.99
68804;SHT31;55787;52.678;13.314;2022-10-26T05:12:07;4.93;99.99
68804;SHT31;55787;52.678;13.314;2022-10-26T05:14:33;4.91;99.99
68804;SHT31;55787;52.678;13.314;2022-10-26T05:17:00;4.91;99.99
68804;SHT31;55787;52.678;13.314;2022-10-26T05:19:26;4.94;99.99
68804;SHT31;55787;52.678;13.314;2022-10-26T05:21:53;4.94;99.99
68804;SHT31;55787;52.678;13.314;2022-10-26T05:24:19;4.95;99.99
68804;SHT31;55787;52.678;13.314;2022-10-26T05:26:46;4.97;99.99
68804;SHT31;55787;52.678;13.314;2022-10-26T05:29:12;5.02;99.99
68804;SHT31;55787;52.678;13.314;2022-10-26T05:31:39;5.11;99.99
68804;SHT31;55787;52.678;13.314;2022-10-26T05:34:05;5.20;99.99
68804;SHT31;55787;52.678;13.314;2022-10-26T05:36:32;5.21;99.99
68804;SHT31;55787;52.678;13.314;2022-10-26T05:38:58;5.20;99.99
68804;SHT31;55787;52.678;13.314;2022-10-26T05:41:25;5.21;99.99
68804;SHT31;55787;52.678;13.314;2022-10-26T05:43:52;5.21;99.99
68804;SHT31;55787;52.678;13.314;2022-10-26T05:46:18;5.31;99.99
68804;SHT31;55787;52.678;13.314;2022-10-26T05:48:45;5.31;99.99
68804;SHT31;55787;52.678;13.314;2022-10-26T05:51:12;5.28;99.99
68804;SHT31;55787;52.678;13.314;2022-10-26T05:53:39;5.28;99.99
68804;SHT31;55787;52.678;13.314;2022-10-26T05:56:18;5.24;99.99
68804;SHT31;55787;52.678;13.314;2022-10-26T05:58:46;5.25;99.99
68804;SHT31;55787;52.678;13.314;2022-10-26T06:06:46;5.27;99.99
68804;SHT31;55787;52.678;13.314;2022-10-26T06:09:18;5.28;99.99
68804;SHT31;55787;52.678;13.314;2022-10-26T06:11:44;5.27;99.99
68804;SHT31;55787;52.678;13.314;2022-10-26T06:14:11;5.28;99.99
68804;SHT31;55787;52.678;13.314;2022-10-26T06:19:37;5.36;99.99
68804;SHT31;55787;52.678;13.314;2022-10-26T06:25:10;5.45;99.99
68804;SHT31;55787;52.678;13.314;2022-10-26T06:30:19;5.59;99.99
68804;SHT31;55787;52.678;13.314;2022-10-26T06:32:49;5.66;99.99
68804;SHT31;55787;52.678;13.314;2022-10-26T06:38:09;5.83;99.99
68804;SHT31;55787;52.678;13.314;2022-10-26T06:40:38;5.93;99.99
68804;SHT31;55787;52.678;13.314;2022-10-26T06:43:33;6.00;99.99
68804;SHT31;55787;52.678;13.314;2022-10-26T06:46:12;6.09;99.99
68804;SHT31;55787;52.678;13.314;2022-10-26T06:56:52;6.55;99.99
68804;SHT31;55787;52.678;13.314;2022-10-26T06:59:37;6.68;99.99
68804;SHT31;55787;52.678;13.314;2022-10-26T07:02:05;6.83;99.99
68804;SHT31;55787;52.678;13.314;2022-10-26T07:04:32;6.97;99.99
68804;SHT31;55787;52.678;13.314;2022-10-26T07:06:58;7.13;99.99
68804;SHT31;55787;52.678;13.314;2022-10-26T07:09:25;7.26;99.99
68804;SHT31;55787;52.678;13.314;2022-10-26T07:11:51;7.40;99.99
68804;SHT31;55787;52.678;13.314;2022-10-26T07:14:18;7.54;99.99
68804;SHT31;55787;52.678;13.314;2022-10-26T07:16:45;7.58;99.99
68804;SHT31;55787;52.678;13.314;2022-10-26T07:19:11;7.65;99.99
68804;SHT31;55787;52.678;13.314;2022-10-26T07:21:38;7.75;99.99
68804;SHT31;55787;52.678;13.314;2022-10-26T07:24:05;7.84;99.99
68804;SHT31;55787;52.678;13.314;2022-10-26T07:26:32;7.94;99.99
68804;SHT31;55787;52.678;13.314;2022-10-26T07:28:58;8.01;99.99
68804;SHT31;55787;52.678;13.314;2022-10-26T07:31:25;8.07;99.99
68804;SHT31;55787;52.678;13.314;2022-10-26T07:33:53;8.15;99.97
68804;SHT31;55787;52.678;13.314;2022-10-26T07:36:20;8.19;99.99
68804;SHT31;55787;52.678;13.314;2022-10-26T07:38:50;8.33;99.98
68804;SHT31;55787;52.678;13.314;2022-10-26T07:41:17;8.43;99.80
68804;SHT31;55787;52.678;13.314;2022-10-26T07:43:44;8.50;99.13
68804;SHT31;55787;52.678;13.314;2022-10-26T07:46:11;8.60;99.23
68804;SHT31;55787;52.678;13.314;2022-10-26T07:48:38;8.59;98.96
68804;SHT31;55787;52.678;13.314;2022-10-26T07:51:06;8.56;99.19
68804;SHT31;55787;52.678;13.314;2022-10-26T07:53:33;8.63;99.18
68804;SHT31;55787;52.678;13.314;2022-10-26T07:55:59;8.68;99.03
68804;SHT31;55787;52.678;13.314;2022-10-26T07:58:26;8.87;98.83
68804;SHT31;55787;52.678;13.314;2022-10-26T08:00:54;8.92;98.17
68804;SHT31;55787;52.678;13.314;2022-10-26T08:03:20;9.02;98.33
68804;SHT31;55787;52.678;13.314;2022-10-26T08:05:48;9.19;97.78
68804;SHT31;55787;52.678;13.314;2022-10-26T08:08:16;9.19;97.27
68804;SHT31;55787;52.678;13.314;2022-10-26T08:10:45;9.16;97.36
68804;SHT31;55787;52.678;13.314;2022-10-26T08:13:12;9.28;97.43
68804;SHT31;55787;52.678;13.314;2022-10-26T08:15:39;9.59;97.22
68804;SHT31;55787;52.678;13.314;2022-10-26T08:18:06;9.74;96.50
68804;SHT31;55787;52.678;13.314;2022-10-26T08:20:33;9.67;96.56
68804;SHT31;55787;52.678;13.314;2022-10-26T08:23:00;9.62;96.76
68804;SHT31;55787;52.678;13.314;2022-10-26T08:25:27;9.53;97.08
68804;SHT31;55787;52.678;13.314;2022-10-26T08:27:54;9.67;96.59
68804;SHT31;55787;52.678;13.314;2022-10-26T08:30:22;9.79;96.00
68804;SHT31;55787;52.678;13.314;2022-10-26T08:32:57;9.79;96.05
68804;SHT31;55787;52.678;13.314;2022-10-26T08:35:24;9.70;96.61
68804;SHT31;55787;52.678;13.314;2022-10-26T08:37:51;9.69;97.15
68804;SHT31;55787;52.678;13.314;2022-10-26T08:40:19;9.80;97.19
68804;SHT31;55787;52.678;13.314;2022-10-26T08:42:49;9.94;96.96
68804;SHT31;55787;52.678;13.314;2022-10-26T08:45:30;10.04;97.45
68804;SHT31;55787;52.678;13.314;2022-10-26T08:48:09;10.28;97.43
68804;SHT31;55787;52.678;13.314;2022-10-26T08:50:44;10.32;97.39
68804;SHT31;55787;52.678;13.314;2022-10-26T08:53:23;10.46;97.05
68804;SHT31;55787;52.678;13.314;2022-10-26T08:56:19;10.69;96.52
68804;SHT31;55787;52.678;13.314;2022-10-26T08:58:58;11.02;96.75
68804;SHT31;55787;52.678;13.314;2022-10-26T09:01:29;12.39;94.21
68804;SHT31;55787;52.678;13.314;2022-10-26T09:03:57;14.18;85.96
68804;SHT31;55787;52.678;13.314;2022-10-26T09:09:09;17.63;73.88
68804;SHT31;55787;52.678;13.314;2022-10-26T09:12:27;18.91;68.39
68804;SHT31;55787;52.678;13.314;2022-10-26T09:15:24;19.80;65.74
68804;SHT31;55787;52.678;13.314;2022-10-26T09:21:09;21.44;59.95
68804;SHT31;55787;52.678;13.314;2022-10-26T09:24:03;22.14;55.67
68804;SHT31;55787;52.678;13.314;2022-10-26T09:29:02;23.25;53.05
68804;SHT31;55787;52.678;13.314;2022-10-26T09:31:31;23.43;52.05
68804;SHT31;55787;52.678;13.314;2022-10-26T09:34:01;23.23;52.73
68804;SHT31;55787;52.678;13.314;2022-10-26T09:36:30;23.46;52.65
68804;SHT31;55787;52.678;13.314;2022-10-26T09:39:19;23.96;50.61
68804;SHT31;55787;52.678;13.314;2022-10-26T09:41:54;23.97;50.54
68804;SHT31;55787;52.678;13.314;2022-10-26T09:44:58;23.98;50.67
68804;SHT31;55787;52.678;13.314;2022-10-26T09:47:32;24.44;49.61
68804;SHT31;55787;52.678;13.314;2022-10-26T09:50:06;24.69;49.11
68804;SHT31;55787;52.678;13.314;2022-10-26T09:52:38;24.78;48.46
68804;SHT31;55787;52.678;13.314;2022-10-26T09:55:05;24.13;51.55
68804;SHT31;55787;52.678;13.314;2022-10-26T09:57:32;24.47;49.51
68804;SHT31;55787;52.678;13.314;2022-10-26T09:59:58;24.24;49.82
68804;SHT31;55787;52.678;13.314;2022-10-26T10:02:52;22.60;54.19
68804;SHT31;55787;52.678;13.314;2022-10-26T10:08:25;20.45;59.69
68804;SHT31;55787;52.678;13.314;2022-10-26T10:10:57;19.70;62.28
68804;SHT31;55787;52.678;13.314;2022-10-26T10:13:28;19.15;65.46
68804;SHT31;55787;52.678;13.314;2022-10-26T10:18:33;18.50;66.98
68804;SHT31;55787;52.678;13.314;2022-10-26T10:21:07;18.26;68.65
68804;SHT31;55787;52.678;13.314;2022-10-26T10:23:46;18.04;67.93
68804;SHT31;55787;52.678;13.314;2022-10-26T10:26:12;17.59;72.09
68804;SHT31;55787;52.678;13.314;2022-10-26T10:28:40;17.65;70.25
68804;SHT31;55787;52.678;13.314;2022-10-26T10:31:22;17.39;71.44
68804;SHT31;55787;52.678;13.314;2022-10-26T10:33:51;17.31;72.90
68804;SHT31;55787;52.678;13.314;2022-10-26T10:36:22;17.28;74.18
68804;SHT31;55787;52.678;13.314;2022-10-26T10:38:51;17.30;72.92
68804;SHT31;55787;52.678;13.314;2022-10-26T10:43:51;17.42;73.57
68804;SHT31;55787;52.678;13.314;2022-10-26T10:46:21;17.52;70.69
68804;SHT31;55787;52.678;13.314;2022-10-26T10:49:16;17.65;71.56
68804;SHT31;55787;52.678;13.314;2022-10-26T10:51:43;17.71;69.45
68804;SHT31;55787;52.678;13.314;2022-10-26T10:54:37;18.00;68.68
68804;SHT31;55787;52.678;13.314;2022-10-26T10:57:23;18.11;68.32
68804;SHT31;55787;52.678;13.314;2022-10-26T11:00:08;18.03;68.78
68804;SHT31;55787;52.678;13.314;2022-10-26T11:03:04;17.90;68.92
68804;SHT31;55787;52.678;13.314;2022-10-26T11:05:47;18.27;68.04
68804;SHT31;55787;52.678;13.314;2022-10-26T11:11:03;18.14;66.82
68804;SHT31;55787;52.678;13.314;2022-10-26T11:13:49;18.43;67.22
68804;SHT31;55787;52.678;13.314;2022-10-26T11:16:30;18.64;65.65
68804;SHT31;55787;52.678;13.314;2022-10-26T11:21:38;19.43;62.83
68804;SHT31;55787;52.678;13.314;2022-10-26T11:24:12;18.69;64.10
68804;SHT31;55787;52.678;13.314;2022-10-26T11:26:48;19.13;62.27
68804;SHT31;55787;52.678;13.314;2022-10-26T11:29:37;19.32;62.40
68804;SHT31;55787;52.678;13.314;2022-10-26T11:32:40;18.94;64.11
68804;SHT31;55787;52.678;13.314;2022-10-26T11:37:55;18.30;66.03
68804;SHT31;55787;52.678;13.314;2022-10-26T11:43:40;17.97;67.92
68804;SHT31;55787;52.678;13.314;2022-10-26T11:46:25;17.96;65.77
68804;SHT31;55787;52.678;13.314;2022-10-26T11:48:58;17.94;66.80
68804;SHT31;55787;52.678;13.314;2022-10-26T11:53:57;18.17;68.31
68804;SHT31;55787;52.678;13.314;2022-10-26T11:56:34;18.31;66.33
68804;SHT31;55787;52.678;13.314;2022-10-26T11:59:02;18.57;63.87
68804;SHT31;55787;52.678;13.314;2022-10-26T12:01:32;18.45;65.10
68804;SHT31;55787;52.678;13.314;2022-10-26T12:04:00;18.60;63.91
68804;SHT31;55787;52.678;13.314;2022-10-26T12:06:30;18.36;64.94
68804;SHT31;55787;52.678;13.314;2022-10-26T12:09:07;18.24;66.11
68804;SHT31;55787;52.678;13.314;2022-10-26T12:11:52;18.29;64.56
68804;SHT31;55787;52.678;13.314;2022-10-26T12:17:11;18.58;64.74
68804;SHT31;55787;52.678;13.314;2022-10-26T12:22:12;19.08;62.78
68804;SHT31;55787;52.678;13.314;2022-10-26T12:24:44;19.32;61.55
68804;SHT31;55787;52.678;13.314;2022-10-26T12:35:33;19.30;61.90
68804;SHT31;55787;52.678;13.314;2022-10-26T12:38:25;19.32;61.53
68804;SHT31;55787;52.678;13.314;2022-10-26T12:41:14;19.49;60.67
68804;SHT31;55787;52.678;13.314;2022-10-26T12:43:43;19.60;60.30
68804;SHT31;55787;52.678;13.314;2022-10-26T12:48:49;19.50;61.32
68804;SHT31;55787;52.678;13.314;2022-10-26T12:56:50;19.45;62.03
68804;SHT31;55787;52.678;13.314;2022-10-26T13:07:24;20.25;59.93
68804;SHT31;55787;52.678;13.314;2022-10-26T13:09:56;20.55;59.32
68804;SHT31;55787;52.678;13.314;2022-10-26T13:12:25;20.90;59.00
68804;SHT31;55787;52.678;13.314;2022-10-26T13:15:01;21.40;56.42
68804;SHT31;55787;52.678;13.314;2022-10-26T13:17:30;21.96;55.17
68804;SHT31;55787;52.678;13.314;2022-10-26T13:20:03;22.19;54.64
68804;SHT31;55787;52.678;13.314;2022-10-26T13:22:31;22.47;53.23
68804;SHT31;55787;52.678;13.314;2022-10-26T13:25:01;22.46;53.13
68804;SHT31;55787;52.678;13.314;2022-10-26T13:32:35;22.35;53.58
68804;SHT31;55787;52.678;13.314;2022-10-26T13:35:04;22.05;54.37
68804;SHT31;55787;52.678;13.314;2022-10-26T13:37:35;21.74;55.54
68804;SHT31;55787;52.678;13.314;2022-10-26T13:40:04;21.54;56.32
68804;SHT31;55787;52.678;13.314;2022-10-26T13:42:44;21.08;57.32
68804;SHT31;55787;52.678;13.314;2022-10-26T13:45:15;20.94;56.81
68804;SHT31;55787;52.678;13.314;2022-10-26T13:48:02;21.10;57.69
68804;SHT31;55787;52.678;13.314;2022-10-26T13:53:38;21.28;57.26
68804;SHT31;55787;52.678;13.314;2022-10-26T13:56:23;21.37;58.34
68804;SHT31;55787;52.678;13.314;2022-10-26T13:58:56;20.62;57.22
68804;SHT31;55787;52.678;13.314;2022-10-26T14:01:25;20.49;58.58
68804;SHT31;55787;52.678;13.314;2022-10-26T14:03:53;20.50;60.50
68804;SHT31;55787;52.678;13.314;2022-10-26T14:06:37;20.59;60.56
68804;SHT31;55787;52.678;13.314;2022-10-26T14:09:10;20.49;61.12
68804;SHT31;55787;52.678;13.314;2022-10-26T14:14:24;20.28;61.40
68804;SHT31;55787;52.678;13.314;2022-10-26T14:16:52;20.12;59.68
68804;SHT31;55787;52.678;13.314;2022-10-26T14:19:31;20.26;62.25
68804;SHT31;55787;52.678;13.314;2022-10-26T14:21:58;20.11;61.85
68804;SHT31;55787;52.678;13.314;2022-10-26T14:24:30;19.88;60.87
68804;SHT31;55787;52.678;13.314;2022-10-26T14:27:21;19.69;61.37
68804;SHT31;55787;52.678;13.314;2022-10-26T14:29:53;19.69;63.78
68804;SHT31;55787;52.678;13.314;2022-10-26T14:32:40;19.53;65.56
68804;SHT31;55787;52.678;13.314;2022-10-26T14:35:11;19.27;66.44
68804;SHT31;55787;52.678;13.314;2022-10-26T14:37:55;18.89;66.51
68804;SHT31;55787;52.678;13.314;2022-10-26T14:40:33;18.48;66.94
68804;SHT31;55787;52.678;13.314;2022-10-26T14:43:02;18.20;70.51
68804;SHT31;55787;52.678;13.314;2022-10-26T14:45:35;17.85;71.92
68804;SHT31;55787;52.678;13.314;2022-10-26T14:48:21;17.53;72.61
68804;SHT31;55787;52.678;13.314;2022-10-26T14:53:38;17.00;74.87
68804;SHT31;55787;52.678;13.314;2022-10-26T14:56:24;16.73;76.15
68804;SHT31;55787;52.678;13.314;2022-10-26T14:58:52;16.52;76.73
68804;SHT31;55787;52.678;13.314;2022-10-26T15:04:00;16.13;78.40
68804;SHT31;55787;52.678;13.314;2022-10-26T15:08:58;15.75;80.04
68804;SHT31;55787;52.678;13.314;2022-10-26T15:11:26;15.58;80.73
68804;SHT31;55787;52.678;13.314;2022-10-26T15:13:54;15.47;81.34
68804;SHT31;55787;52.678;13.314;2022-10-26T15:16:24;15.36;81.73
68804;SHT31;55787;52.678;13.314;2022-10-26T15:18:56;15.26;81.98
68804;SHT31;55787;52.678;13.314;2022-10-26T15:21:34;15.10;82.46
68804;SHT31;55787;52.678;13.314;2022-10-26T15:24:01;14.96;83.09
68804;SHT31;55787;52.678;13.314;2022-10-26T15:26:29;14.85;83.56
68804;SHT31;55787;52.678;13.314;2022-10-26T15:28:56;14.78;83.54
68804;SHT31;55787;52.678;13.314;2022-10-26T15:36:28;14.44;85.05
68804;SHT31;55787;52.678;13.314;2022-10-26T15:38:57;14.35;84.61
68804;SHT31;55787;52.678;13.314;2022-10-26T15:41:27;14.25;85.18
68804;SHT31;55787;52.678;13.314;2022-10-26T15:43:56;14.16;85.60
68804;SHT31;55787;52.678;13.314;2022-10-26T15:46:36;14.03;85.98
68804;SHT31;55787;52.678;13.314;2022-10-26T15:49:05;13.87;86.47
68804;SHT31;55787;52.678;13.314;2022-10-26T15:51:33;13.74;86.76
68804;SHT31;55787;52.678;13.314;2022-10-26T15:54:03;13.66;86.60
68804;SHT31;55787;52.678;13.314;2022-10-26T15:56:30;13.55;86.65
68804;SHT31;55787;52.678;13.314;2022-10-26T15:58:57;13.41;87.24
68804;SHT31;55787;52.678;13.314;2022-10-26T16:01:26;13.29;87.98
68804;SHT31;55787;52.678;13.314;2022-10-26T16:03:53;13.18;88.16
68804;SHT31;55787;52.678;13.314;2022-10-26T16:06:27;13.07;88.49
68804;SHT31;55787;52.678;13.314;2022-10-26T16:08:56;13.01;88.68
68804;SHT31;55787;52.678;13.314;2022-10-26T16:11:23;12.93;88.85
68804;SHT31;55787;52.678;13.314;2022-10-26T16:13:50;12.88;89.40
68804;SHT31;55787;52.678;13.314;2022-10-26T16:16:17;12.84;89.72
68804;SHT31;55787;52.678;13.314;2022-10-26T16:18:44;12.80;89.66
68804;SHT31;55787;52.678;13.314;2022-10-26T16:21:13;12.83;90.23
68804;SHT31;55787;52.678;13.314;2022-10-26T16:23:40;12.80;90.76
68804;SHT31;55787;52.678;13.314;2022-10-26T16:26:07;12.80;90.82
68804;SHT31;55787;52.678;13.314;2022-10-26T16:28:35;12.80;91.00
68804;SHT31;55787;52.678;13.314;2022-10-26T16:31:07;12.79;91.34
68804;SHT31;55787;52.678;13.314;2022-10-26T16:33:36;12.81;91.00
68804;SHT31;55787;52.678;13.314;2022-10-26T16:36:03;12.80;91.13
68804;SHT31;55787;52.678;13.314;2022-10-26T16:38:31;12.76;91.16
68804;SHT31;55787;52.678;13.314;2022-10-26T16:41:05;12.74;91.37
68804;SHT31;55787;52.678;13.314;2022-10-26T16:43:34;12.71;91.53
68804;SHT31;55787;52.678;13.314;2022-10-26T16:46:12;12.64;91.70
68804;SHT31;55787;52.678;13.314;2022-10-26T16:48:40;12.63;91.88
68804;SHT31;55787;52.678;13.314;2022-10-26T16:51:12;12.59;91.76
68804;SHT31;55787;52.678;13.314;2022-10-26T16:53:39;12.60;91.66
68804;SHT31;55787;52.678;13.314;2022-10-26T16:56:11;12.57;91.79
68804;SHT31;55787;52.678;13.314;2022-10-26T16:58:39;12.54;92.21
68804;SHT31;55787;52.678;13.314;2022-10-26T17:01:07;12.53;92.30
68804;SHT31;55787;52.678;13.314;2022-10-26T17:03:34;12.53;92.43
68804;SHT31;55787;52.678;13.314;2022-10-26T17:06:03;12.52;92.61
68804;SHT31;55787;52.678;13.314;2022-10-26T17:08:32;12.53;92.56
68804;SHT31;55787;52.678;13.314;2022-10-26T17:11:08;12.50;92.82
68804;SHT31;55787;52.678;13.314;2022-10-26T17:13:35;12.52;92.90
68804;SHT31;55787;52.678;13.314;2022-10-26T17:16:04;12.52;92.94
68804;SHT31;55787;52.678;13.314;2022-10-26T17:18:30;12.50;93.00
68804;SHT31;55787;52.678;13.314;2022-10-26T17:20:57;12.52;93.02
68804;SHT31;55787;52.678;13.314;2022-10-26T17:23:24;12.53;92.92
68804;SHT31;55787;52.678;13.314;2022-10-26T17:25:51;12.52;93.24
68804;SHT31;55787;52.678;13.314;2022-10-26T17:28:18;12.52;93.35
68804;SHT31;55787;52.678;13.314;2022-10-26T17:30:44;12.49;93.33
68804;SHT31;55787;52.678;13.314;2022-10-26T17:33:11;12.47;93.24
68804;SHT31;55787;52.678;13.314;2022-10-26T17:35:38;12.49;93.55
68804;SHT31;55787;52.678;13.314;2022-10-26T17:38:04;12.44;93.51
68804;SHT31;55787;52.678;13.314;2022-10-26T17:40:31;12.46;93.53
68804;SHT31;55787;52.678;13.314;2022-10-26T17:42:58;12.44;93.74
68804;SHT31;55787;52.678;13.314;2022-10-26T17:45:25;12.42;93.80
68804;SHT31;55787;52.678;13.314;2022-10-26T17:47:52;12.43;93.49
68804;SHT31;55787;52.678;13.314;2022-10-26T17:50:19;12.42;93.56
68804;SHT31;55787;52.678;13.314;2022-10-26T17:52:46;12.40;93.77
68804;SHT31;55787;52.678;13.314;2022-10-26T17:55:12;12.36;94.01
68804;SHT31;55787;52.678;13.314;2022-10-26T17:57:39;12.39;93.99
68804;SHT31;55787;52.678;13.314;2022-10-26T18:00:06;12.37;94.01
68804;SHT31;55787;52.678;13.314;2022-10-26T18:02:33;12.36;94.07
68804;SHT31;55787;52.678;13.314;2022-10-26T18:05:03;12.37;93.88